Terminal Aerodrome Forecast
Issued by NWS Des Moines, IA

Home | Current Version | Previous Version | Text Only | Print | Product List | Glossary On
Versions: 1 2 3 4 5 6 7 8 9 10 11 12 13 14 15 16 17 18 19 20 21
000
FTUS43 KDMX 220520
TAFALO
TAF
KALO 220520Z 2206/2306 06009KT 2SM -DZ BR OVC004
     FM220800 05015G25KT 3SM -RA BR OVC005
     FM221600 03014G22KT P6SM OVC006
     FM222100 04009KT P6SM OVC008
     FM230200 36013G26KT 2SM -RASN OVC008
     FM230400 35018G28KT 2SM -SN OVC008=

USA.gov is the U.S. government's official web portal to all federal, state and local government web resources and services.